sensor_id;sensor_type;location;lat;lon;timestamp;P1;durP1;ratioP1;P2;durP2;ratioP2
48861;SDS011;34681;49.188;-0.374;2023-04-03T00:00:01;4.87;;;2.33;;
48861;SDS011;34681;49.188;-0.374;2023-04-03T00:02:28;5.37;;;2.60;;
48861;SDS011;34681;49.188;-0.374;2023-04-03T00:04:53;4.47;;;2.70;;
48861;SDS011;34681;49.188;-0.374;2023-04-03T00:07:18;12.60;;;3.10;;
48861;SDS011;34681;49.188;-0.374;2023-04-03T00:09:44;7.20;;;2.27;;
48861;SDS011;34681;49.188;-0.374;2023-04-03T00:12:09;11.57;;;2.90;;
48861;SDS011;34681;49.188;-0.374;2023-04-03T00:14:35;10.00;;;2.57;;
48861;SDS011;34681;49.188;-0.374;2023-04-03T00:17:00;11.10;;;2.73;;
48861;SDS011;34681;49.188;-0.374;2023-04-03T00:19:26;10.10;;;3.47;;
48861;SDS011;34681;49.188;-0.374;2023-04-03T00:21:51;6.83;;;2.20;;
48861;SDS011;34681;49.188;-0.374;2023-04-03T00:24:18;4.40;;;2.70;;
48861;SDS011;34681;49.188;-0.374;2023-04-03T00:26:44;6.60;;;2.70;;
48861;SDS011;34681;49.188;-0.374;2023-04-03T00:29:09;6.60;;;3.10;;
48861;SDS011;34681;49.188;-0.374;2023-04-03T00:31:35;11.37;;;3.63;;
48861;SDS011;34681;49.188;-0.374;2023-04-03T00:34:00;5.77;;;2.70;;
48861;SDS011;34681;49.188;-0.374;2023-04-03T00:36:26;8.63;;;3.20;;
48861;SDS011;34681;49.188;-0.374;2023-04-03T00:38:51;9.43;;;3.13;;
48861;SDS011;34681;49.188;-0.374;2023-04-03T00:41:16;15.10;;;4.00;;
48861;SDS011;34681;49.188;-0.374;2023-04-03T00:43:42;6.27;;;2.83;;
48861;SDS011;34681;49.188;-0.374;2023-04-03T00:46:07;3.80;;;2.70;;
48861;SDS011;34681;49.188;-0.374;2023-04-03T00:51:07;12.27;;;2.90;;
48861;SDS011;34681;49.188;-0.374;2023-04-03T00:53:40;5.83;;;3.10;;
48861;SDS011;34681;49.188;-0.374;2023-04-03T00:56:10;7.80;;;3.50;;
48861;SDS011;34681;49.188;-0.374;2023-04-03T00:59:02;11.63;;;3.20;;
48861;SDS011;34681;49.188;-0.374;2023-04-03T01:01:31;4.80;;;2.90;;
48861;SDS011;34681;49.188;-0.374;2023-04-03T01:03:58;5.63;;;3.30;;
48861;SDS011;34681;49.188;-0.374;2023-04-03T01:06:26;5.90;;;4.07;;
48861;SDS011;34681;49.188;-0.374;2023-04-03T01:08:56;10.27;;;3.80;;
48861;SDS011;34681;49.188;-0.374;2023-04-03T01:11:21;7.73;;;3.63;;
48861;SDS011;34681;49.188;-0.374;2023-04-03T01:13:47;8.13;;;4.13;;
48861;SDS011;34681;49.188;-0.374;2023-04-03T01:16:12;7.50;;;4.07;;
48861;SDS011;34681;49.188;-0.374;2023-04-03T01:18:38;8.37;;;3.70;;
48861;SDS011;34681;49.188;-0.374;2023-04-03T01:26:28;4.60;;;3.67;;
48861;SDS011;34681;49.188;-0.374;2023-04-03T01:28:54;4.90;;;4.00;;
48861;SDS011;34681;49.188;-0.374;2023-04-03T01:31:25;11.90;;;4.70;;
48861;SDS011;34681;49.188;-0.374;2023-04-03T01:33:53;9.57;;;6.10;;
48861;SDS011;34681;49.188;-0.374;2023-04-03T01:36:26;15.00;;;5.10;;
48861;SDS011;34681;49.188;-0.374;2023-04-03T01:38:54;6.77;;;5.33;;
48861;SDS011;34681;49.188;-0.374;2023-04-03T01:41:21;11.70;;;4.90;;
48861;SDS011;34681;49.188;-0.374;2023-04-03T01:43:47;6.63;;;4.93;;
48861;SDS011;34681;49.188;-0.374;2023-04-03T01:46:14;11.73;;;5.13;;
48861;SDS011;34681;49.188;-0.374;2023-04-03T01:48:40;8.03;;;4.80;;
48861;SDS011;34681;49.188;-0.374;2023-04-03T01:51:06;8.13;;;4.50;;
48861;SDS011;34681;49.188;-0.374;2023-04-03T01:53:31;7.10;;;5.00;;
48861;SDS011;34681;49.188;-0.374;2023-04-03T01:55:56;14.50;;;5.17;;
48861;SDS011;34681;49.188;-0.374;2023-04-03T01:58:22;9.10;;;4.50;;
48861;SDS011;34681;49.188;-0.374;2023-04-03T02:00:47;7.77;;;4.67;;
48861;SDS011;34681;49.188;-0.374;2023-04-03T02:03:13;5.10;;;4.70;;
48861;SDS011;34681;49.188;-0.374;2023-04-03T02:05:38;5.30;;;4.80;;
48861;SDS011;34681;49.188;-0.374;2023-04-03T02:08:04;5.93;;;5.03;;
48861;SDS011;34681;49.188;-0.374;2023-04-03T02:10:29;6.70;;;5.70;;
48861;SDS011;34681;49.188;-0.374;2023-04-03T02:12:55;11.33;;;6.43;;
48861;SDS011;34681;49.188;-0.374;2023-04-03T02:15:20;6.77;;;6.13;;
48861;SDS011;34681;49.188;-0.374;2023-04-03T02:17:46;10.13;;;6.37;;
48861;SDS011;34681;49.188;-0.374;2023-04-03T02:20:11;7.10;;;6.40;;
48861;SDS011;34681;49.188;-0.374;2023-04-03T02:22:36;12.37;;;7.43;;
48861;SDS011;34681;49.188;-0.374;2023-04-03T02:25:02;10.50;;;8.43;;
48861;SDS011;34681;49.188;-0.374;2023-04-03T02:27:28;8.17;;;7.40;;
48861;SDS011;34681;49.188;-0.374;2023-04-03T02:29:53;10.63;;;8.00;;
48861;SDS011;34681;49.188;-0.374;2023-04-03T02:32:19;8.30;;;6.53;;
48861;SDS011;34681;49.188;-0.374;2023-04-03T02:34:44;7.50;;;6.03;;
48861;SDS011;34681;49.188;-0.374;2023-04-03T02:37:10;12.67;;;7.10;;
48861;SDS011;34681;49.188;-0.374;2023-04-03T02:39:35;8.53;;;6.70;;
48861;SDS011;34681;49.188;-0.374;2023-04-03T02:42:00;7.07;;;6.47;;
48861;SDS011;34681;49.188;-0.374;2023-04-03T02:44:26;10.50;;;7.43;;
48861;SDS011;34681;49.188;-0.374;2023-04-03T02:46:51;11.67;;;7.07;;
48861;SDS011;34681;49.188;-0.374;2023-04-03T02:49:17;8.43;;;7.63;;
48861;SDS011;34681;49.188;-0.374;2023-04-03T02:51:42;10.73;;;8.57;;
48861;SDS011;34681;49.188;-0.374;2023-04-03T02:54:07;11.57;;;10.50;;
48861;SDS011;34681;49.188;-0.374;2023-04-03T02:56:33;10.60;;;9.50;;
48861;SDS011;34681;49.188;-0.374;2023-04-03T02:58:58;10.53;;;9.70;;
48861;SDS011;34681;49.188;-0.374;2023-04-03T03:01:24;11.47;;;10.27;;
48861;SDS011;34681;49.188;-0.374;2023-04-03T03:03:51;10.13;;;9.13;;
48861;SDS011;34681;49.188;-0.374;2023-04-03T03:06:17;16.00;;;9.53;;
48861;SDS011;34681;49.188;-0.374;2023-04-03T03:08:43;10.80;;;9.87;;
48861;SDS011;34681;49.188;-0.374;2023-04-03T03:11:09;11.60;;;10.70;;
48861;SDS011;34681;49.188;-0.374;2023-04-03T03:13:35;13.53;;;12.33;;
48861;SDS011;34681;49.188;-0.374;2023-04-03T03:16:01;12.53;;;11.47;;
48861;SDS011;34681;49.188;-0.374;2023-04-03T03:18:27;12.83;;;11.63;;
48861;SDS011;34681;49.188;-0.374;2023-04-03T03:20:52;11.37;;;10.37;;
48861;SDS011;34681;49.188;-0.374;2023-04-03T03:23:19;14.77;;;12.90;;
48861;SDS011;34681;49.188;-0.374;2023-04-03T03:25:45;12.97;;;11.73;;
48861;SDS011;34681;49.188;-0.374;2023-04-03T03:28:11;13.77;;;12.57;;
48861;SDS011;34681;49.188;-0.374;2023-04-03T03:30:36;13.30;;;12.00;;
48861;SDS011;34681;49.188;-0.374;2023-04-03T03:33:02;14.30;;;12.90;;
48861;SDS011;34681;49.188;-0.374;2023-04-03T03:35:27;15.40;;;12.83;;
48861;SDS011;34681;49.188;-0.374;2023-04-03T03:37:52;14.40;;;12.90;;
48861;SDS011;34681;49.188;-0.374;2023-04-03T03:40:18;14.23;;;12.97;;
48861;SDS011;34681;49.188;-0.374;2023-04-03T03:42:43;13.73;;;12.43;;
48861;SDS011;34681;49.188;-0.374;2023-04-03T03:45:09;13.33;;;12.10;;
48861;SDS011;34681;49.188;-0.374;2023-04-03T03:47:34;13.17;;;12.17;;
48861;SDS011;34681;49.188;-0.374;2023-04-03T03:50:00;13.37;;;12.40;;
48861;SDS011;34681;49.188;-0.374;2023-04-03T03:52:26;14.37;;;13.20;;
48861;SDS011;34681;49.188;-0.374;2023-04-03T03:54:51;14.63;;;13.43;;
48861;SDS011;34681;49.188;-0.374;2023-04-03T03:57:17;15.37;;;13.93;;
48861;SDS011;34681;49.188;-0.374;2023-04-03T03:59:42;15.07;;;13.80;;
48861;SDS011;34681;49.188;-0.374;2023-04-03T04:02:09;15.17;;;13.77;;
48861;SDS011;34681;49.188;-0.374;2023-04-03T04:04:35;15.90;;;14.53;;
48861;SDS011;34681;49.188;-0.374;2023-04-03T04:07:01;16.10;;;14.50;;
48861;SDS011;34681;49.188;-0.374;2023-04-03T04:09:26;15.90;;;14.30;;
48861;SDS011;34681;49.188;-0.374;2023-04-03T04:11:52;15.73;;;14.17;;
48861;SDS011;34681;49.188;-0.374;2023-04-03T04:14:18;14.73;;;13.33;;
48861;SDS011;34681;49.188;-0.374;2023-04-03T04:16:45;15.20;;;13.80;;
48861;SDS011;34681;49.188;-0.374;2023-04-03T04:19:11;14.30;;;13.00;;
48861;SDS011;34681;49.188;-0.374;2023-04-03T04:21:36;15.90;;;14.43;;
48861;SDS011;34681;49.188;-0.374;2023-04-03T04:24:02;14.50;;;13.07;;
48861;SDS011;34681;49.188;-0.374;2023-04-03T04:26:27;15.37;;;13.87;;
48861;SDS011;34681;49.188;-0.374;2023-04-03T04:28:53;13.93;;;12.67;;
48861;SDS011;34681;49.188;-0.374;2023-04-03T04:31:18;13.70;;;12.30;;
48861;SDS011;34681;49.188;-0.374;2023-04-03T04:33:43;13.47;;;12.30;;
48861;SDS011;34681;49.188;-0.374;2023-04-03T04:36:09;13.50;;;12.40;;
48861;SDS011;34681;49.188;-0.374;2023-04-03T04:38:35;15.03;;;13.63;;
48861;SDS011;34681;49.188;-0.374;2023-04-03T04:41:00;15.87;;;14.20;;
48861;SDS011;34681;49.188;-0.374;2023-04-03T04:43:26;15.00;;;13.60;;
48861;SDS011;34681;49.188;-0.374;2023-04-03T04:46:01;16.27;;;14.57;;
48861;SDS011;34681;49.188;-0.374;2023-04-03T04:48:30;16.20;;;14.73;;
48861;SDS011;34681;49.188;-0.374;2023-04-03T04:50:56;16.47;;;15.07;;
48861;SDS011;34681;49.188;-0.374;2023-04-03T04:53:21;17.33;;;15.83;;
48861;SDS011;34681;49.188;-0.374;2023-04-03T04:55:47;16.97;;;15.00;;
48861;SDS011;34681;49.188;-0.374;2023-04-03T04:58:12;17.43;;;15.77;;
48861;SDS011;34681;49.188;-0.374;2023-04-03T05:00:38;17.77;;;15.97;;
48861;SDS011;34681;49.188;-0.374;2023-04-03T05:03:03;17.07;;;15.57;;
48861;SDS011;34681;49.188;-0.374;2023-04-03T05:05:28;18.40;;;16.70;;
48861;SDS011;34681;49.188;-0.374;2023-04-03T05:07:54;17.60;;;15.90;;
48861;SDS011;34681;49.188;-0.374;2023-04-03T05:10:19;18.33;;;16.83;;
48861;SDS011;34681;49.188;-0.374;2023-04-03T05:12:45;19.60;;;17.70;;
48861;SDS011;34681;49.188;-0.374;2023-04-03T05:15:11;19.93;;;18.20;;
48861;SDS011;34681;49.188;-0.374;2023-04-03T05:17:36;20.07;;;18.40;;
48861;SDS011;34681;49.188;-0.374;2023-04-03T05:20:02;18.63;;;16.87;;
48861;SDS011;34681;49.188;-0.374;2023-04-03T05:22:29;19.80;;;18.10;;
48861;SDS011;34681;49.188;-0.374;2023-04-03T05:24:55;18.50;;;16.80;;
48861;SDS011;34681;49.188;-0.374;2023-04-03T05:27:20;19.60;;;17.90;;
48861;SDS011;34681;49.188;-0.374;2023-04-03T05:29:45;19.20;;;17.53;;
48861;SDS011;34681;49.188;-0.374;2023-04-03T05:32:11;18.50;;;16.90;;
48861;SDS011;34681;49.188;-0.374;2023-04-03T05:34:36;19.30;;;17.50;;
48861;SDS011;34681;49.188;-0.374;2023-04-03T05:37:02;19.90;;;17.80;;
48861;SDS011;34681;49.188;-0.374;2023-04-03T05:39:29;19.40;;;17.67;;
48861;SDS011;34681;49.188;-0.374;2023-04-03T05:41:55;19.63;;;17.73;;
48861;SDS011;34681;49.188;-0.374;2023-04-03T05:44:20;20.80;;;18.73;;
48861;SDS011;34681;49.188;-0.374;2023-04-03T05:46:46;20.50;;;18.57;;
48861;SDS011;34681;49.188;-0.374;2023-04-03T05:49:11;21.43;;;19.40;;
48861;SDS011;34681;49.188;-0.374;2023-04-03T05:51:37;22.00;;;19.23;;
48861;SDS011;34681;49.188;-0.374;2023-04-03T05:54:12;20.13;;;18.13;;
48861;SDS011;34681;49.188;-0.374;2023-04-03T05:56:41;20.33;;;18.43;;
48861;SDS011;34681;49.188;-0.374;2023-04-03T05:59:06;21.50;;;19.37;;
48861;SDS011;34681;49.188;-0.374;2023-04-03T06:01:32;19.17;;;17.27;;
48861;SDS011;34681;49.188;-0.374;2023-04-03T06:03:59;21.20;;;19.10;;
48861;SDS011;34681;49.188;-0.374;2023-04-03T06:06:24;20.57;;;18.53;;
48861;SDS011;34681;49.188;-0.374;2023-04-03T06:08:50;20.73;;;18.93;;
48861;SDS011;34681;49.188;-0.374;2023-04-03T06:11:15;19.80;;;18.00;;
48861;SDS011;34681;49.188;-0.374;2023-04-03T06:13:41;21.23;;;19.23;;
48861;SDS011;34681;49.188;-0.374;2023-04-03T06:16:07;21.80;;;19.70;;
48861;SDS011;34681;49.188;-0.374;2023-04-03T06:18:36;19.60;;;17.70;;
48861;SDS011;34681;49.188;-0.374;2023-04-03T06:21:02;19.57;;;17.77;;
48861;SDS011;34681;49.188;-0.374;2023-04-03T06:23:28;19.03;;;17.03;;
48861;SDS011;34681;49.188;-0.374;2023-04-03T06:25:53;20.57;;;18.37;;
48861;SDS011;34681;49.188;-0.374;2023-04-03T06:28:19;20.17;;;18.10;;
48861;SDS011;34681;49.188;-0.374;2023-04-03T06:30:45;18.43;;;16.63;;
48861;SDS011;34681;49.188;-0.374;2023-04-03T06:33:10;16.33;;;14.73;;
48861;SDS011;34681;49.188;-0.374;2023-04-03T06:35:35;13.27;;;12.17;;
48861;SDS011;34681;49.188;-0.374;2023-04-03T06:38:03;14.03;;;12.77;;
48861;SDS011;34681;49.188;-0.374;2023-04-03T06:40:34;14.50;;;13.10;;
48861;SDS011;34681;49.188;-0.374;2023-04-03T06:43:00;13.20;;;12.00;;
48861;SDS011;34681;49.188;-0.374;2023-04-03T06:45:26;13.20;;;11.87;;
48861;SDS011;34681;49.188;-0.374;2023-04-03T06:47:52;13.37;;;11.97;;
48861;SDS011;34681;49.188;-0.374;2023-04-03T06:50:18;15.03;;;13.47;;
48861;SDS011;34681;49.188;-0.374;2023-04-03T06:52:43;13.53;;;12.33;;
48861;SDS011;34681;49.188;-0.374;2023-04-03T06:55:09;13.63;;;12.10;;
48861;SDS011;34681;49.188;-0.374;2023-04-03T06:57:35;12.43;;;11.30;;
48861;SDS011;34681;49.188;-0.374;2023-04-03T07:00:01;11.50;;;10.50;;
48861;SDS011;34681;49.188;-0.374;2023-04-03T07:02:26;9.57;;;8.57;;
48861;SDS011;34681;49.188;-0.374;2023-04-03T07:04:52;9.80;;;9.10;;
48861;SDS011;34681;49.188;-0.374;2023-04-03T07:07:17;9.77;;;9.07;;
48861;SDS011;34681;49.188;-0.374;2023-04-03T07:09:42;10.40;;;9.53;;
48861;SDS011;34681;49.188;-0.374;2023-04-03T07:12:08;10.03;;;9.20;;
48861;SDS011;34681;49.188;-0.374;2023-04-03T07:14:33;9.43;;;8.73;;
48861;SDS011;34681;49.188;-0.374;2023-04-03T07:16:59;9.47;;;8.80;;
48861;SDS011;34681;49.188;-0.374;2023-04-03T07:19:25;9.47;;;8.60;;
48861;SDS011;34681;49.188;-0.374;2023-04-03T07:21:52;9.50;;;8.80;;
48861;SDS011;34681;49.188;-0.374;2023-04-03T07:24:18;9.23;;;8.63;;
48861;SDS011;34681;49.188;-0.374;2023-04-03T07:26:44;10.57;;;9.67;;
48861;SDS011;34681;49.188;-0.374;2023-04-03T07:29:10;9.17;;;8.57;;
48861;SDS011;34681;49.188;-0.374;2023-04-03T07:31:35;8.83;;;8.13;;
48861;SDS011;34681;49.188;-0.374;2023-04-03T07:34:01;8.83;;;8.13;;
48861;SDS011;34681;49.188;-0.374;2023-04-03T07:36:27;8.73;;;8.03;;
48861;SDS011;34681;49.188;-0.374;2023-04-03T07:38:52;8.30;;;7.80;;
48861;SDS011;34681;49.188;-0.374;2023-04-03T07:41:18;8.83;;;8.23;;
48861;SDS011;34681;49.188;-0.374;2023-04-03T07:43:47;9.13;;;8.43;;
48861;SDS011;34681;49.188;-0.374;2023-04-03T07:46:14;9.40;;;8.70;;
48861;SDS011;34681;49.188;-0.374;2023-04-03T07:48:40;7.80;;;7.10;;
48861;SDS011;34681;49.188;-0.374;2023-04-03T07:51:05;8.03;;;7.53;;
48861;SDS011;34681;49.188;-0.374;2023-04-03T07:53:31;9.60;;;8.70;;
48861;SDS011;34681;49.188;-0.374;2023-04-03T07:55:57;9.57;;;8.80;;
48861;SDS011;34681;49.188;-0.374;2023-04-03T07:58:23;9.33;;;8.53;;
48861;SDS011;34681;49.188;-0.374;2023-04-03T08:00:49;8.00;;;7.50;;
48861;SDS011;34681;49.188;-0.374;2023-04-03T08:03:15;8.53;;;7.93;;
48861;SDS011;34681;49.188;-0.374;2023-04-03T08:05:44;8.83;;;8.07;;
48861;SDS011;34681;49.188;-0.374;2023-04-03T08:08:12;7.40;;;7.00;;
48861;SDS011;34681;49.188;-0.374;2023-04-03T08:10:39;8.10;;;7.43;;
48861;SDS011;34681;49.188;-0.374;2023-04-03T08:13:04;8.83;;;8.07;;
48861;SDS011;34681;49.188;-0.374;2023-04-03T08:15:30;8.47;;;7.77;;
48861;SDS011;34681;49.188;-0.374;2023-04-03T08:17:57;8.20;;;7.67;;
48861;SDS011;34681;49.188;-0.374;2023-04-03T08:20:23;9.07;;;8.37;;
48861;SDS011;34681;49.188;-0.374;2023-04-03T08:22:49;9.53;;;8.70;;
48861;SDS011;34681;49.188;-0.374;2023-04-03T08:25:14;9.70;;;8.70;;
48861;SDS011;34681;49.188;-0.374;2023-04-03T08:27:40;10.07;;;8.13;;
48861;SDS011;34681;49.188;-0.374;2023-04-03T08:30:05;8.63;;;7.97;;
48861;SDS011;34681;49.188;-0.374;2023-04-03T08:32:33;9.80;;;8.70;;
48861;SDS011;34681;49.188;-0.374;2023-04-03T08:34:59;9.20;;;8.30;;
48861;SDS011;34681;49.188;-0.374;2023-04-03T08:37:25;9.03;;;8.40;;
48861;SDS011;34681;49.188;-0.374;2023-04-03T08:39:51;10.03;;;9.13;;
48861;SDS011;34681;49.188;-0.374;2023-04-03T08:42:34;8.67;;;7.97;;
48861;SDS011;34681;49.188;-0.374;2023-04-03T08:45:07;9.63;;;8.77;;
48861;SDS011;34681;49.188;-0.374;2023-04-03T08:47:38;9.23;;;8.60;;
48861;SDS011;34681;49.188;-0.374;2023-04-03T08:50:04;9.63;;;8.70;;
48861;SDS011;34681;49.188;-0.374;2023-04-03T08:58:03;9.57;;;8.77;;
48861;SDS011;34681;49.188;-0.374;2023-04-03T09:00:34;10.33;;;9.47;;
48861;SDS011;34681;49.188;-0.374;2023-04-03T09:03:14;9.60;;;8.90;;
48861;SDS011;34681;49.188;-0.374;2023-04-03T09:05:44;9.87;;;9.07;;
48861;SDS011;34681;49.188;-0.374;2023-04-03T09:08:31;10.83;;;9.83;;
48861;SDS011;34681;49.188;-0.374;2023-04-03T09:16:56;9.37;;;8.60;;
48861;SDS011;34681;49.188;-0.374;2023-04-03T09:19:35;10.23;;;9.33;;
48861;SDS011;34681;49.188;-0.374;2023-04-03T09:22:17;10.90;;;9.80;;
48861;SDS011;34681;49.188;-0.374;2023-04-03T09:24:58;11.37;;;10.30;;
48861;SDS011;34681;49.188;-0.374;2023-04-03T09:27:30;12.00;;;10.37;;
48861;SDS011;34681;49.188;-0.374;2023-04-03T09:29:56;9.73;;;8.93;;
48861;SDS011;34681;49.188;-0.374;2023-04-03T09:32:29;10.93;;;10.10;;
48861;SDS011;34681;49.188;-0.374;2023-04-03T09:35:03;10.10;;;9.20;;
48861;SDS011;34681;49.188;-0.374;2023-04-03T09:37:51;10.40;;;9.30;;
48861;SDS011;34681;49.188;-0.374;2023-04-03T09:42:50;12.93;;;10.50;;
48861;SDS011;34681;49.188;-0.374;2023-04-03T09:45:23;13.30;;;10.67;;
48861;SDS011;34681;49.188;-0.374;2023-04-03T09:50:37;11.30;;;10.30;;
48861;SDS011;34681;49.188;-0.374;2023-04-03T09:55:54;12.17;;;11.07;;
48861;SDS011;34681;49.188;-0.374;2023-04-03T09:58:39;11.73;;;10.57;;
48861;SDS011;34681;49.188;-0.374;2023-04-03T10:01:06;12.83;;;11.70;;
48861;SDS011;34681;49.188;-0.374;2023-04-03T10:03:32;11.87;;;10.83;;
48861;SDS011;34681;49.188;-0.374;2023-04-03T10:06:00;13.57;;;12.33;;
48861;SDS011;34681;49.188;-0.374;2023-04-03T10:08:30;12.73;;;11.60;;
48861;SDS011;34681;49.188;-0.374;2023-04-03T10:13:35;11.67;;;10.60;;
48861;SDS011;34681;49.188;-0.374;2023-04-03T10:16:02;12.00;;;10.90;;
48861;SDS011;34681;49.188;-0.374;2023-04-03T10:18:44;12.93;;;11.77;;
48861;SDS011;34681;49.188;-0.374;2023-04-03T10:29:21;11.70;;;10.90;;
48861;SDS011;34681;49.188;-0.374;2023-04-03T10:34:29;12.57;;;11.37;;
48861;SDS011;34681;49.188;-0.374;2023-04-03T10:53:57;14.30;;;12.90;;
48861;SDS011;34681;49.188;-0.374;2023-04-03T10:56:32;13.90;;;11.63;;
48861;SDS011;34681;49.188;-0.374;2023-04-03T11:01:38;13.93;;;11.97;;
48861;SDS011;34681;49.188;-0.374;2023-04-03T11:04:07;15.70;;;13.77;;
48861;SDS011;34681;49.188;-0.374;2023-04-03T11:06:37;13.17;;;12.00;;
48861;SDS011;34681;49.188;-0.374;2023-04-03T11:11:45;13.30;;;11.93;;
48861;SDS011;34681;49.188;-0.374;2023-04-03T11:14:27;12.80;;;11.70;;
48861;SDS011;34681;49.188;-0.374;2023-04-03T11:17:15;13.80;;;12.60;;
48861;SDS011;34681;49.188;-0.374;2023-04-03T11:22:33;13.80;;;11.97;;
48861;SDS011;34681;49.188;-0.374;2023-04-03T11:25:04;14.43;;;13.07;;
48861;SDS011;34681;49.188;-0.374;2023-04-03T11:30:18;14.77;;;13.20;;
48861;SDS011;34681;49.188;-0.374;2023-04-03T11:32:58;16.00;;;14.60;;
48861;SDS011;34681;49.188;-0.374;2023-04-03T11:35:35;15.97;;;14.47;;
48861;SDS011;34681;49.188;-0.374;2023-04-03T11:38:03;15.10;;;13.60;;
48861;SDS011;34681;49.188;-0.374;2023-04-03T11:40:33;14.63;;;13.30;;
48861;SDS011;34681;49.188;-0.374;2023-04-03T11:43:16;14.37;;;12.97;;
48861;SDS011;34681;49.188;-0.374;2023-04-03T11:45:52;13.97;;;12.73;;
48861;SDS011;34681;49.188;-0.374;2023-04-03T11:50:59;14.27;;;13.00;;
48861;SDS011;34681;49.188;-0.374;2023-04-03T11:53:33;15.00;;;13.57;;
48861;SDS011;34681;49.188;-0.374;2023-04-03T12:01:54;15.50;;;13.90;;
48861;SDS011;34681;49.188;-0.374;2023-04-03T15:14:38;11.83;;;10.80;;
48861;SDS011;34681;49.188;-0.374;2023-04-03T15:20:38;11.27;;;10.37;;
48861;SDS011;34681;49.188;-0.374;2023-04-03T15:23:04;12.67;;;11.70;;
48861;SDS011;34681;49.188;-0.374;2023-04-03T15:25:31;12.83;;;11.73;;
48861;SDS011;34681;49.188;-0.374;2023-04-03T15:27:57;12.10;;;10.90;;
48861;SDS011;34681;49.188;-0.374;2023-04-03T15:30:23;11.83;;;10.87;;
48861;SDS011;34681;49.188;-0.374;2023-04-03T15:32:49;12.03;;;10.93;;
48861;SDS011;34681;49.188;-0.374;2023-04-03T15:35:14;11.93;;;10.20;;
48861;SDS011;34681;49.188;-0.374;2023-04-03T15:37:40;11.57;;;10.37;;
48861;SDS011;34681;49.188;-0.374;2023-04-03T15:40:06;11.63;;;10.60;;
48861;SDS011;34681;49.188;-0.374;2023-04-03T15:42:32;9.93;;;9.03;;
48861;SDS011;34681;49.188;-0.374;2023-04-03T15:44:57;11.00;;;10.10;;
48861;SDS011;34681;49.188;-0.374;2023-04-03T15:47:24;9.47;;;8.77;;
48861;SDS011;34681;49.188;-0.374;2023-04-03T15:49:50;11.10;;;9.77;;
48861;SDS011;34681;49.188;-0.374;2023-04-03T15:52:15;9.97;;;9.20;;
48861;SDS011;34681;49.188;-0.374;2023-04-03T15:57:30;8.90;;;8.00;;
48861;SDS011;34681;49.188;-0.374;2023-04-03T15:59:56;8.60;;;7.90;;
48861;SDS011;34681;49.188;-0.374;2023-04-03T16:02:21;8.80;;;8.10;;
48861;SDS011;34681;49.188;-0.374;2023-04-03T16:04:52;8.83;;;8.13;;
48861;SDS011;34681;49.188;-0.374;2023-04-03T16:07:19;8.30;;;7.57;;
48861;SDS011;34681;49.188;-0.374;2023-04-03T16:09:44;8.03;;;7.43;;
48861;SDS011;34681;49.188;-0.374;2023-04-03T16:12:10;7.47;;;6.77;;
48861;SDS011;34681;49.188;-0.374;2023-04-03T16:14:35;10.43;;;7.70;;
48861;SDS011;34681;49.188;-0.374;2023-04-03T16:17:00;7.73;;;7.13;;
48861;SDS011;34681;49.188;-0.374;2023-04-03T16:19:26;8.93;;;8.23;;
48861;SDS011;34681;49.188;-0.374;2023-04-03T16:21:53;7.87;;;7.00;;
48861;SDS011;34681;49.188;-0.374;2023-04-03T16:24:19;6.30;;;5.90;;
48861;SDS011;34681;49.188;-0.374;2023-04-03T16:26:44;7.20;;;6.57;;
48861;SDS011;34681;49.188;-0.374;2023-04-03T16:29:10;7.50;;;6.83;;
48861;SDS011;34681;49.188;-0.374;2023-04-03T16:31:35;6.10;;;5.63;;
48861;SDS011;34681;49.188;-0.374;2023-04-03T16:34:01;7.87;;;7.10;;
48861;SDS011;34681;49.188;-0.374;2023-04-03T16:36:26;6.43;;;5.97;;
48861;SDS011;34681;49.188;-0.374;2023-04-03T16:38:52;7.23;;;6.63;;
48861;SDS011;34681;49.188;-0.374;2023-04-03T16:41:17;6.60;;;6.07;;
48861;SDS011;34681;49.188;-0.374;2023-04-03T16:43:42;6.20;;;5.57;;
48861;SDS011;34681;49.188;-0.374;2023-04-03T16:46:08;6.80;;;6.20;;
48861;SDS011;34681;49.188;-0.374;2023-04-03T16:48:34;8.80;;;6.50;;
48861;SDS011;34681;49.188;-0.374;2023-04-03T16:50:59;6.43;;;5.83;;
48861;SDS011;34681;49.188;-0.374;2023-04-03T16:53:25;7.07;;;6.43;;
48861;SDS011;34681;49.188;-0.374;2023-04-03T16:55:51;7.17;;;6.57;;
48861;SDS011;34681;49.188;-0.374;2023-04-03T16:58:17;7.23;;;6.53;;
48861;SDS011;34681;49.188;-0.374;2023-04-03T17:00:42;7.87;;;6.70;;
48861;SDS011;34681;49.188;-0.374;2023-04-03T17:03:08;6.77;;;6.13;;
48861;SDS011;34681;49.188;-0.374;2023-04-03T17:05:33;5.77;;;5.13;;
48861;SDS011;34681;49.188;-0.374;2023-04-03T17:07:59;6.40;;;5.57;;
48861;SDS011;34681;49.188;-0.374;2023-04-03T17:10:26;6.17;;;5.60;;
48861;SDS011;34681;49.188;-0.374;2023-04-03T17:12:51;6.70;;;4.43;;
48861;SDS011;34681;49.188;-0.374;2023-04-03T17:15:17;4.87;;;4.57;;
48861;SDS011;34681;49.188;-0.374;2023-04-03T17:17:43;4.40;;;4.00;;
48861;SDS011;34681;49.188;-0.374;2023-04-03T17:20:09;4.30;;;4.00;;
48861;SDS011;34681;49.188;-0.374;2023-04-03T17:22:35;4.00;;;3.60;;
48861;SDS011;34681;49.188;-0.374;2023-04-03T17:25:01;4.10;;;3.77;;
48861;SDS011;34681;49.188;-0.374;2023-04-03T17:27:27;4.20;;;3.90;;
48861;SDS011;34681;49.188;-0.374;2023-04-03T17:29:52;3.20;;;3.00;;
48861;SDS011;34681;49.188;-0.374;2023-04-03T17:32:18;5.17;;;4.10;;
48861;SDS011;34681;49.188;-0.374;2023-04-03T17:34:45;5.30;;;4.20;;
48861;SDS011;34681;49.188;-0.374;2023-04-03T17:37:11;5.70;;;4.20;;
48861;SDS011;34681;49.188;-0.374;2023-04-03T17:39:36;8.30;;;4.40;;
48861;SDS011;34681;49.188;-0.374;2023-04-03T17:42:02;9.63;;;4.53;;
48861;SDS011;34681;49.188;-0.374;2023-04-03T17:44:27;4.60;;;4.20;;
48861;SDS011;34681;49.188;-0.374;2023-04-03T17:46:53;5.27;;;4.20;;
48861;SDS011;34681;49.188;-0.374;2023-04-03T17:49:18;7.33;;;4.73;;
48861;SDS011;34681;49.188;-0.374;2023-04-03T17:51:44;5.60;;;4.30;;
48861;SDS011;34681;49.188;-0.374;2023-04-03T17:54:10;7.53;;;4.53;;
48861;SDS011;34681;49.188;-0.374;2023-04-03T17:56:36;7.87;;;4.77;;
48861;SDS011;34681;49.188;-0.374;2023-04-03T17:59:01;14.20;;;5.37;;
48861;SDS011;34681;49.188;-0.374;2023-04-03T18:01:28;6.53;;;4.80;;
48861;SDS011;34681;49.188;-0.374;2023-04-03T18:03:57;10.10;;;4.60;;
48861;SDS011;34681;49.188;-0.374;2023-04-03T18:06:25;6.03;;;4.60;;
48861;SDS011;34681;49.188;-0.374;2023-04-03T18:09:03;7.30;;;4.37;;
48861;SDS011;34681;49.188;-0.374;2023-04-03T18:11:31;13.93;;;4.70;;
48861;SDS011;34681;49.188;-0.374;2023-04-03T18:13:58;14.03;;;4.30;;
48861;SDS011;34681;49.188;-0.374;2023-04-03T18:16:26;12.73;;;5.90;;
48861;SDS011;34681;49.188;-0.374;2023-04-03T18:18:52;8.17;;;4.70;;
48861;SDS011;34681;49.188;-0.374;2023-04-03T18:21:17;5.20;;;4.67;;
48861;SDS011;34681;49.188;-0.374;2023-04-03T18:23:46;5.20;;;4.27;;
48861;SDS011;34681;49.188;-0.374;2023-04-03T18:26:15;9.03;;;4.80;;
48861;SDS011;34681;49.188;-0.374;2023-04-03T18:28:41;5.23;;;4.30;;
48861;SDS011;34681;49.188;-0.374;2023-04-03T18:31:13;17.03;;;5.60;;
48861;SDS011;34681;49.188;-0.374;2023-04-03T18:33:41;5.83;;;4.70;;
48861;SDS011;34681;49.188;-0.374;2023-04-03T18:36:07;6.33;;;5.50;;
48861;SDS011;34681;49.188;-0.374;2023-04-03T18:38:33;7.87;;;5.53;;
48861;SDS011;34681;49.188;-0.374;2023-04-03T18:40:58;11.20;;;5.80;;
48861;SDS011;34681;49.188;-0.374;2023-04-03T18:43:26;7.80;;;5.63;;
48861;SDS011;34681;49.188;-0.374;2023-04-03T18:45:52;10.70;;;4.70;;
48861;SDS011;34681;49.188;-0.374;2023-04-03T18:48:18;9.43;;;5.43;;
48861;SDS011;34681;49.188;-0.374;2023-04-03T18:50:45;7.80;;;4.83;;
48861;SDS011;34681;49.188;-0.374;2023-04-03T18:53:11;7.27;;;5.13;;